Historyczne dane pomiarowe

Dodano dane terminowe – wersja testowa.

Dane z okresu 1951-2019

Wersja bazy: 1.34 [2019-03-16, lista zmian], aktualizacja planowana na 2019-04-15

Dane meteo z obszaru Polski uzyskane na podstawie danych udostępnionych przez Instytut Meteorologii i Gospodarki Wodnej – Państwowy Instytut Badawczy.

 

Wybierz Datę:    

       

TemperaturaWilgotnośćWiatrCiśnienieOpadyŚniegCzas trwania zjawisk
 Stacja t tx tn tng RH VA  wxwx mslp ppp RRR   cm mm wxwxwxwxwxwxwx
1956-11-09 -1.0 1.2 -1.9- 84.5- 6.0 4.0---- 0.0------------
1956-11-08 1.8 4.4 0.0- 86.5- 4.7 3.7---- 0.4------------
1956-11-07 2.3 4.1 0.4- 74.8- 5.7 8.3---- 1.0------------
1956-11-06 3.1 5.2 1.8- 57.3- 4.0 10.3---- 0.0------------
1956-11-05 5.5 8.1 2.5- 68.8- 7.3 11.7---- 2.7------------
1956-11-04 2.3 3.6 -0.5- 77.3- 6.3 8.0---- 0.0------------
1956-11-03 1.9 5.1 -0.6- 78.5- 4.0 5.3---- 0.0------------
1956-11-02 3.9 5.9 2.8- 58.8- 5.3 4.0---- 0.0------------
1956-11-01 5.6 6.5 0.8- 89.3- 8.0 12.0---- 5.4------------
1956-10-31 0.6 2.6 -1.2- 78.3- 6.3 5.7---- 0.0------------
1956-10-30 0.8 2.8 -0.3- 81.8- 6.0 7.7---- 0.0------------
1956-10-29 1.7 6.3 0.3- 91.8- 8.0 12.0---- 5.3------------
1956-10-28 6.7 8.5 5.2- 92.0- 8.0 9.0---- 1.6------------
1956-10-27 8.6 9.8 5.2- 79.8- 7.0 7.3---- 12.2------------
1956-10-26 6.3 8.8 4.3- 84.3- 4.7 4.0---- 0.0------------
1956-10-25 9.8 14.2 7.1- 85.0- 5.0 5.3---- 0.0------------
1956-10-24 11.5 12.6 9.2- 92.8- 8.0 7.0---- 1.1------------
1956-10-23 10.2 11.8 8.1- 81.8- 8.0 8.3---- 0.0------------
1956-10-22 11.6 12.9 10.8- 76.8- 6.7 14.3---- 0.0------------
1956-10-21 12.2 13.3 8.5- 86.3- 8.0 8.0---- 0.0------------
1956-10-20 9.2 10.8 6.4- 95.0- 6.7 5.0---- 1.4------------
1956-10-19 10.1 12.3 8.5- 84.3- 6.3 7.0---- 0.0------------
1956-10-18 11.7 13.7 9.1- 90.3- 6.7 2.7---- 6.4------------
1956-10-17 10.1 15.0 4.8- 60.0- 0.7 6.3---- 0.0------------
1956-10-16 7.4 11.3 2.6- 87.5- 3.0 2.3---- 0.0------------
1956-10-15 8.4 10.1 7.5- 74.8- 0.7 4.7---- 0.0------------
1956-10-14 8.9 10.2 7.3- 69.5- 1.3 12.7---- 0.0------------
1956-10-13 10.3 11.6 9.4- 82.0- 7.7 15.3---- 7.2------------
1956-10-12 10.9 12.4 9.8- 84.8- 7.0 11.0---- 1.2------------
1956-10-11 11.4 12.2 7.1- 81.5- 7.3 10.0---- 0.0------------
1956-10-10 7.7 9.6 5.0- 74.0- 6.0 5.3---- 0.3------------
1956-10-09 7.7 11.1 4.3- 70.3- 5.0 7.0---- 0.1------------
1956-10-08 6.1 8.6 4.5- 70.5- 6.7 6.3---- 2.5------------
1956-10-07 8.7 10.4 6.5- 70.0- 6.3 14.3---- 0.2------------
1956-10-06 8.0 9.8 4.3- 81.5- 5.0 4.3---- 0.4------------
1956-10-05 7.3 10.9 5.4- 86.8- 5.0 5.0---- 1.4------------
1956-10-04 10.0 14.6 6.7- 87.5- 5.3 7.0---- 1.5------------
1956-10-03 11.1 13.9 9.1- 91.3- 5.3 4.3---- 15.6------------
1956-10-02 13.6 18.7 9.7- 83.8- 7.7 7.3---- 33.4------------
1956-10-01 12.8 14.7 9.2- 82.8- 4.7 6.7---- 0.5------------
1956-09-30 12.0 16.0 10.0- 88.5- 1.7 6.0---- 0.0------------
1956-09-29 13.8 17.3 11.8- 72.3- 2.0 11.7---- 0.0------------
1956-09-28 15.1 18.3 13.5- 84.5- 7.0 11.0---- 0.2------------
1956-09-27 15.5 19.5 10.5- 78.8- 4.0 5.3---- 0.0------------
1956-09-26 15.1 19.8 10.0- 74.3- 0.0 7.0---- 0.0------------
1956-09-25 11.5 14.5 4.2- 66.3- 0.0 6.3---- 0.0------------
1956-09-24 9.5 13.1 5.0- 67.5- 0.0 6.7---- 0.0------------
1956-09-23 11.5 13.4 9.1- 69.0- 1.3 3.0---- 0.0------------
1956-09-22 13.2 16.5 9.8- 85.3- 0.7 1.7---- 0.0------------
1956-09-21 12.1 15.6 6.7- 83.3- 0.0 0.0---- 0.0------------
1956-09-20 11.8 14.8 7.7- 82.3- 3.0 1.3---- 0.0------------
1956-09-19 10.9 14.6 5.7- 80.0- 2.0 2.3---- 0.0------------
1956-09-18 12.0 15.0 9.3- 73.8- 3.3 3.0---- 0.8------------
1956-09-17 11.1 13.4 8.5- 73.0- 2.3 10.0---- 1.1------------
1956-09-16 11.3 13.5 8.1- 74.0- 6.3 11.3---- 3.5------------
1956-09-15 12.1 14.0 9.6- 73.8- 3.3 10.0---- 0.0------------
1956-09-14 12.4 15.9 10.0- 83.0- 2.0 1.0---- 0.8------------
1956-09-13 10.2 11.1 7.7- 88.5- 3.7 4.7---- 4.7------------
1956-09-12 11.2 14.4 9.0- 83.0- 5.7 10.3---- 19.2------------
1956-09-11 14.4 16.4 12.3- 88.3- 6.7 2.0---- 24.3------------
216.9 ms

 

Źródłem pochodzenia danych jest Instytut Meteorologii i Gospodarki Wodnej – Państwowy Instytut Badawczy. Dane Instytutu Meteorologii i Gospodarki Wodnej – Państwowego Instytutu Badawczego zostały przetworzone.

Dane źródłowe można odnaleźć na stronie https://dane.imgw.pl